createdAt,value
2022-12-25T00:00:20.179Z,100147.42
2022-12-25T00:04:42.740Z,100150.59
2022-12-25T00:08:44.669Z,100154.49
2022-12-25T00:12:47.004Z,100162.97
2022-12-25T00:16:49.023Z,100164.12
2022-12-25T00:21:03.106Z,100173.30
2022-12-25T00:25:05.383Z,100184.66
2022-12-25T00:29:11.510Z,100198.09
2022-12-25T00:33:14.715Z,100206.73
2022-12-25T00:37:16.653Z,100213.64
2022-12-25T00:41:39.747Z,100227.97
2022-12-25T00:45:41.699Z,100214.16
2022-12-25T00:49:44.154Z,100210.73
2022-12-25T00:53:45.985Z,100219.36
2022-12-25T00:57:47.896Z,100226.66
2022-12-25T01:01:50.053Z,100240.52
2022-12-25T01:06:01.182Z,100248.77
2022-12-25T01:10:21.873Z,100246.00
2022-12-25T01:14:23.757Z,100250.51
2022-12-25T01:18:25.601Z,100261.62
2022-12-25T01:22:27.890Z,100273.27
2022-12-25T01:26:30.185Z,100273.35
2022-12-25T01:30:33.103Z,100284.59
2022-12-25T01:34:35.016Z,100284.46
2022-12-25T01:38:36.862Z,100286.26
2022-12-25T01:42:38.807Z,100291.84
2022-12-25T01:46:41.889Z,100287.75
2022-12-25T01:50:47.261Z,100291.19
2022-12-25T01:54:55.456Z,100292.45
2022-12-25T01:58:59.041Z,100300.88
2022-12-25T02:03:01.711Z,100305.68
2022-12-25T02:07:07.040Z,100298.34
2022-12-25T02:11:28.897Z,100295.41
2022-12-25T02:16:13.043Z,100289.70
2022-12-25T02:20:39.278Z,100284.81
2022-12-25T02:25:12.017Z,100281.84
2022-12-25T02:29:41.867Z,100276.94
2022-12-25T02:34:02.822Z,100269.92
2022-12-25T02:38:26.665Z,100274.92
2022-12-25T02:42:48.547Z,100279.27
2022-12-25T02:47:10.738Z,100275.45
2022-12-25T02:51:34.873Z,100268.83
2022-12-25T02:55:58.654Z,100264.41
2022-12-25T03:00:20.851Z,100268.69
2022-12-25T03:04:43.853Z,100276.41
2022-12-25T03:08:50.142Z,100269.98
2022-12-25T03:12:58.726Z,100274.05
2022-12-25T03:17:00.785Z,100267.40
2022-12-25T03:21:21.651Z,100263.02
2022-12-25T03:25:42.093Z,100269.73
2022-12-25T03:30:02.613Z,100279.66
2022-12-25T03:34:29.917Z,100285.59
2022-12-25T03:39:29.368Z,100291.26
2022-12-25T03:44:18.950Z,100285.06
2022-12-25T03:48:41.074Z,100293.02
2022-12-25T03:53:04.144Z,100305.42
2022-12-25T03:57:25.233Z,100308.33
2022-12-25T04:01:45.836Z,100315.89
2022-12-25T04:06:06.503Z,100324.52
2022-12-25T04:10:27.637Z,100330.98
2022-12-25T04:14:48.263Z,100329.94
2022-12-25T04:19:08.807Z,100333.05
2022-12-25T04:23:29.416Z,100347.46
2022-12-25T04:27:50.023Z,100347.06
2022-12-25T04:32:10.696Z,100350.67
2022-12-25T04:36:12.612Z,100349.99
2022-12-25T04:40:14.636Z,100348.06
2022-12-25T04:44:16.540Z,100342.86
2022-12-25T04:48:18.361Z,100345.88
2022-12-25T04:52:20.255Z,100349.98
2022-12-25T04:56:22.526Z,100355.76
2022-12-25T05:00:24.334Z,100355.11
2022-12-25T05:04:26.215Z,100359.89
2022-12-25T05:08:29.486Z,100361.63
2022-12-25T05:12:31.324Z,100368.33
2022-12-25T05:16:33.275Z,100369.33
2022-12-25T05:20:39.909Z,100371.55
2022-12-25T05:24:42.365Z,100368.04
2022-12-25T05:28:44.289Z,100369.73
2022-12-25T05:32:47.543Z,100366.33
2022-12-25T05:36:49.361Z,100374.05
2022-12-25T05:40:51.783Z,100372.25
2022-12-25T05:44:53.832Z,100375.98
2022-12-25T05:48:55.621Z,100374.15
2022-12-25T05:53:00.256Z,100379.61
2022-12-25T05:57:06.300Z,100385.66
2022-12-25T06:01:16.743Z,100381.25
2022-12-25T06:05:18.683Z,100381.53
2022-12-25T06:09:20.604Z,100373.13
2022-12-25T06:13:22.478Z,100379.89
2022-12-25T06:17:26.356Z,100391.48
2022-12-25T06:21:28.190Z,100405.75
2022-12-25T06:25:30.088Z,100406.90
2022-12-25T06:29:31.940Z,100412.37
2022-12-25T06:33:34.023Z,100420.70
2022-12-25T06:37:36.039Z,100424.98
2022-12-25T06:41:37.940Z,100430.50
2022-12-25T06:45:39.814Z,100438.88
2022-12-25T06:49:41.693Z,100448.17
2022-12-25T06:53:43.583Z,100454.92
2022-12-25T06:57:45.451Z,100464.04
2022-12-25T07:01:50.084Z,100467.23
2022-12-25T07:05:52.170Z,100477.12
2022-12-25T07:09:54.087Z,100493.22
2022-12-25T07:13:57.419Z,100500.51
2022-12-25T07:17:59.398Z,100497.34
2022-12-25T07:22:01.340Z,100509.41
2022-12-25T07:26:03.488Z,100509.95
2022-12-25T07:30:06.220Z,100514.88
2022-12-25T07:34:08.149Z,100514.41
2022-12-25T07:38:10.340Z,100514.52
2022-12-25T07:42:13.684Z,100524.05
2022-12-25T07:46:15.665Z,100525.89
2022-12-25T07:50:18.026Z,100519.30
2022-12-25T07:54:20.293Z,100523.99
2022-12-25T07:58:23.638Z,100530.28
2022-12-25T08:02:28.426Z,100539.82
2022-12-25T08:06:33.623Z,100547.04
2022-12-25T08:10:35.574Z,100551.73
2022-12-25T08:14:37.391Z,100545.90
2022-12-25T08:18:40.208Z,100550.11
2022-12-25T08:22:42.085Z,100552.95
2022-12-25T08:26:43.943Z,100556.51
2022-12-25T08:30:45.898Z,100559.86
2022-12-25T08:34:48.824Z,100565.33
2022-12-25T08:38:51.021Z,100560.91
2022-12-25T08:42:55.945Z,100565.41
2022-12-25T08:46:57.924Z,100571.02
2022-12-25T08:51:01.326Z,100578.65
2022-12-25T08:55:03.707Z,100588.09
2022-12-25T08:59:05.955Z,100594.10
2022-12-25T09:03:08.037Z,100597.40
2022-12-25T09:07:10.792Z,100604.60
2022-12-25T09:11:14.437Z,100608.28
2022-12-25T09:15:16.515Z,100616.23
2022-12-25T09:19:18.553Z,100615.09
2022-12-25T09:23:20.720Z,100623.70
2022-12-25T09:27:22.629Z,100630.64
2022-12-25T09:31:24.708Z,100635.67
2022-12-25T09:35:26.653Z,100634.75
2022-12-25T09:39:28.565Z,100633.82
2022-12-25T09:43:36.840Z,100639.77
2022-12-25T09:47:41.852Z,100637.92
2022-12-25T09:51:48.653Z,100638.27
2022-12-25T09:56:11.799Z,100634.59
2022-12-25T10:00:21.428Z,100632.42
2022-12-25T10:04:51.803Z,100632.02
2022-12-25T10:09:24.384Z,100632.15
2022-12-25T10:14:05.467Z,100644.10
2022-12-25T10:18:36.384Z,100637.80
2022-12-25T10:22:42.255Z,100630.21
2022-12-25T10:26:45.045Z,100634.45
2022-12-25T10:30:50.035Z,100635.42
2022-12-25T10:34:52.069Z,100639.11
2022-12-25T10:38:54.814Z,100633.02
2022-12-25T10:43:25.184Z,100632.12
2022-12-25T10:47:32.577Z,100637.95
2022-12-25T10:51:38.120Z,100640.46
2022-12-25T10:55:39.951Z,100643.14
2022-12-25T10:59:45.007Z,100641.54
2022-12-25T11:03:51.843Z,100639.45
2022-12-25T11:07:54.917Z,100648.16
2022-12-25T11:11:56.826Z,100644.45
2022-12-25T11:16:06.085Z,100635.95
2022-12-25T11:20:16.826Z,100629.99
2022-12-25T11:24:21.556Z,100634.54
2022-12-25T11:28:25.621Z,100635.31
2022-12-25T11:32:54.888Z,100632.39
2022-12-25T11:36:58.376Z,100637.54
2022-12-25T11:41:04.061Z,100634.02
2022-12-25T11:45:18.292Z,100634.16
2022-12-25T11:49:21.764Z,100636.90
2022-12-25T11:53:35.645Z,100634.67
2022-12-25T11:57:38.686Z,100627.54
2022-12-25T12:01:48.517Z,100627.21
2022-12-25T12:05:59.737Z,100626.53
2022-12-25T12:10:14.712Z,100642.92
2022-12-25T12:15:17.344Z,100643.91
2022-12-25T12:19:30.965Z,100650.63
2022-12-25T12:23:54.478Z,100654.02
2022-12-25T12:28:05.260Z,100653.35
2022-12-25T12:32:25.150Z,100653.00
2022-12-25T12:36:35.637Z,100659.00
2022-12-25T12:40:43.299Z,100666.26
2022-12-25T12:44:46.832Z,100672.52
2022-12-25T12:48:51.467Z,100673.92
2022-12-25T12:52:53.689Z,100669.69
2022-12-25T12:57:03.652Z,100664.48
2022-12-25T13:01:05.882Z,100660.58
2022-12-25T13:05:34.750Z,100660.09
2022-12-25T13:10:00.148Z,100667.03
2022-12-25T13:14:03.204Z,100665.90
2022-12-25T13:18:12.746Z,100665.75
2022-12-25T13:22:29.530Z,100669.50
2022-12-25T13:26:31.591Z,100666.46
2022-12-25T13:30:33.652Z,100658.31
2022-12-25T13:34:38.525Z,100653.57
2022-12-25T13:38:46.381Z,100655.14
2022-12-25T13:42:49.942Z,100663.69
2022-12-25T13:46:51.867Z,100666.88
2022-12-25T13:50:59.127Z,100667.04
2022-12-25T13:55:13.850Z,100668.64
2022-12-25T13:59:19.937Z,100670.71
2022-12-25T14:03:23.704Z,100678.42
2022-12-25T14:07:27.627Z,100682.58
2022-12-25T14:11:31.876Z,100686.73
2022-12-25T14:15:35.935Z,100693.95
2022-12-25T14:19:37.762Z,100696.96
2022-12-25T14:23:40.310Z,100700.11
2022-12-25T14:27:48.923Z,100707.48
2022-12-25T14:31:51.984Z,100714.92
2022-12-25T14:35:54.026Z,100719.11
2022-12-25T14:40:00.382Z,100718.51
2022-12-25T14:44:05.736Z,100717.29
2022-12-25T14:48:24.509Z,100720.01
2022-12-25T14:52:47.256Z,100723.36
2022-12-25T14:56:51.820Z,100728.70
2022-12-25T15:01:00.141Z,100733.67
2022-12-25T15:05:02.185Z,100737.73
2022-12-25T15:09:12.794Z,100733.66
2022-12-25T15:13:17.378Z,100732.64
2022-12-25T15:17:25.971Z,100740.18
2022-12-25T15:21:33.790Z,100742.89
2022-12-25T15:25:35.677Z,100739.45
2022-12-25T15:30:08.575Z,100739.20
2022-12-25T15:34:03.052Z,100739.02
2022-12-25T15:38:05.132Z,100732.98
2022-12-25T15:42:25.236Z,100726.98
2022-12-25T15:46:27.418Z,100716.75
2022-12-25T15:50:29.837Z,100709.98
2022-12-25T15:54:32.676Z,100713.71
2022-12-25T15:58:34.601Z,100717.21
2022-12-25T16:02:36.682Z,100721.46
2022-12-25T16:06:38.820Z,100725.92
2022-12-25T16:10:40.673Z,100731.75
2022-12-25T16:14:42.753Z,100728.48
2022-12-25T16:18:47.733Z,100720.84
2022-12-25T16:22:49.917Z,100724.75
2022-12-25T16:26:51.850Z,100728.67
2022-12-25T16:30:53.773Z,100725.85
2022-12-25T16:34:55.637Z,100718.36
2022-12-25T16:38:57.564Z,100725.02
2022-12-25T16:42:59.511Z,100728.13
2022-12-25T16:47:01.472Z,100730.55
2022-12-25T16:51:15.709Z,100738.20
2022-12-25T16:55:17.701Z,100734.82
2022-12-25T16:59:19.684Z,100734.87
2022-12-25T17:03:21.597Z,100731.84
2022-12-25T17:07:23.725Z,100727.60
2022-12-25T17:11:31.946Z,100721.38
2022-12-25T17:15:33.841Z,100720.95
2022-12-25T17:19:35.803Z,100718.10
2022-12-25T17:23:38.353Z,100717.73
2022-12-25T17:27:40.275Z,100717.77
2022-12-25T17:31:42.136Z,100715.30
2022-12-25T17:35:44.072Z,100709.64
2022-12-25T17:39:46.963Z,100706.22
2022-12-25T17:43:48.853Z,100711.27
2022-12-25T17:47:54.541Z,100713.40
2022-12-25T17:51:57.393Z,100712.89
2022-12-25T17:55:59.384Z,100715.50
2022-12-25T18:00:01.325Z,100710.29
2022-12-25T18:04:03.738Z,100705.38
2022-12-25T18:08:05.831Z,100703.79
2022-12-25T18:12:08.948Z,100691.77
2022-12-25T18:16:12.488Z,100683.59
2022-12-25T18:20:14.463Z,100677.82
2022-12-25T18:24:16.894Z,100685.08
2022-12-25T18:28:19.038Z,100691.08
2022-12-25T18:32:27.877Z,100695.09
2022-12-25T18:36:30.510Z,100701.46
2022-12-25T18:40:32.589Z,100718.70
2022-12-25T18:44:36.275Z,100717.92
2022-12-25T18:48:38.374Z,100712.80
2022-12-25T18:52:48.731Z,100713.20
2022-12-25T18:56:53.858Z,100713.05
2022-12-25T19:00:55.882Z,100707.66
2022-12-25T19:04:57.900Z,100699.96
2022-12-25T19:08:59.794Z,100698.09
2022-12-25T19:13:01.749Z,100689.69
2022-12-25T19:17:04.448Z,100681.46
2022-12-25T19:21:08.812Z,100680.08
2022-12-25T19:25:11.228Z,100675.01
2022-12-25T19:29:13.821Z,100671.42
2022-12-25T19:33:17.984Z,100672.78
2022-12-25T19:37:20.137Z,100669.13
2022-12-25T19:41:22.285Z,100672.84
2022-12-25T19:45:24.212Z,100671.95
2022-12-25T19:49:26.098Z,100673.59
2022-12-25T19:53:29.527Z,100672.59
2022-12-25T19:57:31.468Z,100673.65
2022-12-25T20:01:33.920Z,100672.31
2022-12-25T20:05:37.552Z,100674.56
2022-12-25T20:09:39.454Z,100667.73
2022-12-25T20:13:41.330Z,100662.35
2022-12-25T20:17:43.204Z,100655.34
2022-12-25T20:21:47.183Z,100659.94
2022-12-25T20:25:49.038Z,100657.65
2022-12-25T20:29:51.059Z,100658.72
2022-12-25T20:33:54.824Z,100655.10
2022-12-25T20:37:56.722Z,100650.90
2022-12-25T20:41:58.628Z,100647.64
2022-12-25T20:46:00.985Z,100653.33
2022-12-25T20:50:03.619Z,100655.20
2022-12-25T20:54:07.504Z,100644.67
2022-12-25T20:58:10.397Z,100641.88
2022-12-25T21:02:35.657Z,100647.45
2022-12-25T21:06:34.466Z,100640.31
2022-12-25T21:10:36.345Z,100631.02
2022-12-25T21:14:39.771Z,100626.61
2022-12-25T21:18:42.161Z,100620.59
2022-12-25T21:22:44.119Z,100617.90
2022-12-25T21:26:48.219Z,100609.84
2022-12-25T21:30:51.471Z,100609.26
2022-12-25T21:34:53.327Z,100605.23
2022-12-25T21:39:04.608Z,100600.54
2022-12-25T21:43:06.856Z,100591.97
2022-12-25T21:47:08.870Z,100595.36
2022-12-25T21:51:36.556Z,100587.59
2022-12-25T21:55:38.662Z,100593.25
2022-12-25T21:59:40.576Z,100597.98
2022-12-25T22:03:43.862Z,100597.63
2022-12-25T22:07:45.773Z,100595.45
2022-12-25T22:12:06.423Z,100589.08
2022-12-25T22:16:26.933Z,100588.14
2022-12-25T22:20:37.712Z,100580.81
2022-12-25T22:24:39.638Z,100581.00
2022-12-25T22:28:42.009Z,100576.59
2022-12-25T22:32:45.791Z,100568.69
2022-12-25T22:36:49.917Z,100558.13
2022-12-25T22:40:51.846Z,100554.58
2022-12-25T22:44:53.763Z,100550.23
2022-12-25T22:48:56.293Z,100551.70
2022-12-25T22:52:58.380Z,100542.38
2022-12-25T22:57:00.490Z,100532.68
2022-12-25T23:01:02.592Z,100521.92
2022-12-25T23:05:06.792Z,100500.31
2022-12-25T23:09:12.368Z,100492.25
2022-12-25T23:13:32.950Z,100499.70
2022-12-25T23:17:53.540Z,100505.63
2022-12-25T23:22:14.261Z,100510.11
2022-12-25T23:26:17.919Z,100506.11
2022-12-25T23:30:20.696Z,100493.39
2022-12-25T23:34:22.970Z,100479.40
2022-12-25T23:38:24.800Z,100465.20
2022-12-25T23:42:26.764Z,100465.81
2022-12-25T23:46:29.433Z,100459.32
2022-12-25T23:50:31.370Z,100464.76
2022-12-25T23:54:33.627Z,100464.52
2022-12-25T23:58:36.041Z,100453.71
